Time;durP1;ratioP1;P1;durP2;ratioP2;P2;SDS_P1;SDS_P2;PMS_P1;PMS_P2;Temp;Humidity;BMP_temperature;BMP_pressure;BME280_temperature;BME280_humidity;BME280_pressure;Samples;Min_cycle;Max_cycle;Signal;HPM_P1;HPM_P2
2022/03/23 00:02:05;;;;;;;;;56.50;44.00;;;;;13.12;51.59;102633.00;5079739;27;45444;-73
2022/03/23 00:04:31;;;;;;;;;55.33;44.00;;;;;13.16;51.30;102634.78;5080629;27;45488;-73
2022/03/23 00:06:57;;;;;;;;;53.33;41.00;;;;;12.99;50.78;102608.38;5080084;27;46447;-73
2022/03/23 00:09:22;;;;;;;;;51.33;40.00;;;;;13.13;51.26;102634.75;5079120;27;45939;-73
2022/03/23 00:11:48;;;;;;;;;50.67;38.33;;;;;13.01;51.70;102611.88;5080269;27;45663;-73
2022/03/23 00:14:16;;;;;;;;;52.67;39.67;;;;;13.12;51.63;102635.66;5080171;28;45430;-73
2022/03/23 00:16:41;;;;;;;;;51.67;41.00;;;;;12.82;51.92;102588.16;5079978;27;47251;-73
2022/03/23 00:19:07;;;;;;;;;45.67;36.33;;;;;13.11;52.15;102640.06;5079555;27;45307;-73
2022/03/23 00:21:33;;;;;;;;;55.33;42.33;;;;;13.11;52.29;102632.13;5079021;28;45448;-73
2022/03/23 00:23:59;;;;;;;;;55.00;42.33;;;;;13.05;51.96;102621.56;5079546;27;45394;-72
2022/03/23 00:26:25;;;;;;;;;56.00;41.33;;;;;12.85;51.19;102587.25;5079860;27;47083;-72
2022/03/23 00:28:51;;;;;;;;;60.33;44.00;;;;;12.91;51.24;102596.91;5079352;27;45502;-72
2022/03/23 00:31:18;;;;;;;;;53.00;38.67;;;;;13.15;51.56;102638.28;5079594;27;45752;-72
2022/03/23 00:33:44;;;;;;;;;53.00;39.67;;;;;13.07;51.80;102633.91;5080142;27;45421;-72
2022/03/23 00:36:10;;;;;;;;;51.67;42.33;;;;;13.14;51.79;102633.88;5079299;27;45479;-73
2022/03/23 00:38:35;;;;;;;;;50.00;38.33;;;;;13.09;51.93;102631.25;5079589;27;45342;-72
2022/03/23 00:41:03;;;;;;;;;51.33;40.00;;;;;13.09;52.14;102633.03;5079512;28;45381;-73
2022/03/23 00:43:29;;;;;;;;;54.00;40.33;;;;;13.00;52.09;102616.28;5080042;27;45315;-72
2022/03/23 00:45:54;;;;;;;;;51.00;42.33;;;;;13.02;52.11;102627.72;5079420;27;47229;-72
2022/03/23 00:48:20;;;;;;;;;52.00;40.33;;;;;13.06;51.97;102633.91;5079661;27;45387;-72
2022/03/23 00:50:46;;;;;;;;;54.00;42.33;;;;;13.00;51.68;102631.28;5079733;28;45525;-72
2022/03/23 00:53:11;;;;;;;;;53.67;40.67;;;;;12.91;51.49;102618.97;5079636;27;45508;-72
2022/03/23 00:55:37;;;;;;;;;51.00;39.00;;;;;12.98;52.16;102636.59;5079155;28;46007;-71
2022/03/23 00:58:02;;;;;;;;;51.33;39.33;;;;;12.94;51.56;102626.00;5078938;28;45505;-71
2022/03/23 01:00:28;;;;;;;;;49.00;38.67;;;;;12.90;52.09;102627.78;5079009;27;45481;-72
2022/03/23 01:02:53;;;;;;;;;50.00;39.67;;;;;12.86;51.54;102624.25;5078645;27;45442;-71
2022/03/23 01:05:19;;;;;;;;;52.67;40.00;;;;;12.77;51.85;102632.22;5078342;28;46239;-72
2022/03/23 01:07:44;;;;;;;;;48.33;39.00;;;;;12.73;52.43;102634.84;5079239;27;45486;-72
2022/03/23 01:10:13;;;;;;;;;52.33;39.67;;;;;12.65;52.22;102630.47;5092316;27;45336;-71
2022/03/23 01:12:39;;;;;;;;;50.33;40.00;;;;;12.53;52.93;102615.50;5095428;27;45404;-72
2022/03/23 01:15:06;;;;;;;;;49.00;38.67;;;;;12.44;52.78;102620.78;5084891;27;47331;-72
2022/03/23 01:17:32;;;;;;;;;48.67;37.33;;;;;12.36;52.32;102627.84;5078733;27;45452;-72
2022/03/23 01:19:57;;;;;;;;;50.33;38.67;;;;;12.25;53.46;102617.25;5079016;27;45490;-73
2022/03/23 01:22:23;;;;;;;;;56.00;42.00;;;;;12.11;53.26;102595.22;5079075;28;45753;-73
2022/03/23 01:24:48;;;;;;;;;52.33;40.67;;;;;12.16;54.01;102623.41;5079058;27;46014;-72
2022/03/23 01:27:13;;;;;;;;;48.00;37.00;;;;;12.09;53.88;102619.00;5078463;27;45798;-73
2022/03/23 01:29:39;;;;;;;;;53.33;39.67;;;;;11.97;53.60;102609.31;5078301;28;46014;-73
2022/03/23 01:32:05;;;;;;;;;51.67;41.00;;;;;12.04;53.96;102626.06;5079599;27;45495;-71
2022/03/23 01:34:30;;;;;;;;;55.00;39.33;;;;;12.04;53.60;102622.50;5075118;28;46425;-72
2022/03/23 01:36:55;;;;;;;;;50.00;38.00;;;;;11.92;53.92;102604.88;5079350;27;45415;-72
2022/03/23 01:39:21;;;;;;;;;51.00;39.33;;;;;11.90;53.52;102604.88;5079604;28;45213;-72
2022/03/23 01:41:46;;;;;;;;;53.00;41.33;;;;;11.83;54.00;102598.69;5079414;27;45562;-72
2022/03/23 01:44:12;;;;;;;;;49.00;38.67;;;;;11.89;54.42;102612.78;5079438;27;46208;-72
2022/03/23 01:46:37;;;;;;;;;48.33;38.33;;;;;11.67;54.04;102581.94;5079096;27;45530;-73
2022/03/23 01:49:03;;;;;;;;;55.00;40.00;;;;;11.77;53.99;102608.38;5079372;27;45216;-72
2022/03/23 01:51:28;;;;;;;;;51.67;39.00;;;;;11.77;54.00;102606.59;5090889;27;45171;-72
2022/03/23 01:53:53;;;;;;;;;58.67;43.00;;;;;11.76;54.20;102611.88;5099604;27;47346;-72
2022/03/23 01:56:19;;;;;;;;;49.33;39.33;;;;;11.68;53.98;102606.59;5099598;27;45439;-72
2022/03/23 01:58:44;;;;;;;;;51.67;40.00;;;;;11.60;54.79;102606.56;5099639;27;45618;-72
2022/03/23 02:01:10;;;;;;;;;44.33;36.67;;;;;11.62;53.67;102611.84;5099958;27;45288;-72
2022/03/23 02:03:36;;;;;;;;;49.33;39.00;;;;;11.45;54.10;102586.28;5099193;27;46384;-72
2022/03/23 02:06:01;;;;;;;;;53.67;40.67;;;;;11.46;53.89;102587.19;5099250;27;45412;-72
2022/03/23 02:08:27;;;;;;;;;51.00;40.00;;;;;11.55;53.82;102602.16;5099565;27;45420;-72
2022/03/23 02:10:52;;;;;;;;;57.00;41.00;;;;;11.39;53.76;102585.41;5079333;27;46791;-72
2022/03/23 02:13:17;;;;;;;;;49.00;40.67;;;;;11.45;54.06;102590.69;5078880;27;46664;-72
2022/03/23 02:15:43;;;;;;;;;56.00;43.00;;;;;11.50;53.97;102596.84;5078163;27;45427;-72
2022/03/23 02:18:08;;;;;;;;;52.00;38.00;;;;;11.48;54.00;102594.19;5078517;27;45516;-72
2022/03/23 02:20:33;;;;;;;;;53.33;40.00;;;;;11.43;54.16;102585.41;5079028;27;45367;-72
2022/03/23 02:22:59;;;;;;;;;53.33;40.00;;;;;11.47;53.95;102600.38;5078633;27;46279;-72
2022/03/23 02:25:27;;;;;;;;;50.67;40.33;;;;;11.44;53.79;102604.75;5078720;27;45403;-72
2022/03/23 02:27:54;;;;;;;;;52.67;41.67;;;;;11.42;54.28;102598.59;5078701;27;45396;-72
2022/03/23 02:30:21;;;;;;;;;54.67;42.00;;;;;11.38;54.48;102595.03;5078244;27;45568;-72
2022/03/23 02:32:48;;;;;;;;;53.00;41.00;;;;;11.40;53.98;102598.59;5078579;27;47397;-72
2022/03/23 02:35:15;;;;;;;;;57.00;40.67;;;;;11.33;54.08;102591.53;5078274;27;45381;-72
2022/03/23 02:37:41;;;;;;;;;45.67;36.33;;;;;11.34;54.16;102595.91;5078590;27;45509;-72
2022/03/23 02:40:10;;;;;;;;;55.67;43.00;;;;;11.07;54.62;102558.00;5078904;28;45307;-72
2022/03/23 02:42:37;;;;;;;;;52.00;42.67;;;;;11.15;54.32;102582.66;5077888;27;46565;-72
2022/03/23 02:45:03;;;;;;;;;49.00;39.67;;;;;11.18;53.90;102600.22;5078144;27;45397;-72
2022/03/23 02:47:28;;;;;;;;;48.33;38.33;;;;;11.08;54.27;102593.16;5078000;27;45380;-72
2022/03/23 02:49:54;;;;;;;;;54.33;42.00;;;;;11.09;53.68;102601.06;5078527;28;45441;-72
2022/03/23 02:52:19;;;;;;;;;49.00;37.67;;;;;10.85;53.96;102578.13;5078341;27;46698;-72
2022/03/23 03:03:41;;;;;;;;;58.00;38.33;;;;;10.77;54.23;102580.69;5078075;28;45522;-72
2022/03/23 03:06:06;;;;;;;;;55.33;40.00;;;;;10.77;54.37;102585.94;5078008;27;45397;-72
2022/03/23 03:08:50;;;;;;;;;53.00;42.67;;;;;10.78;54.77;102582.47;5077725;27;45197;-72
2022/03/23 03:11:18;;;;;;;;;56.67;42.67;;;;;10.90;54.65;102604.50;5078174;27;45447;-72
2022/03/23 03:13:48;;;;;;;;;51.33;42.33;;;;;10.91;54.82;102608.91;5077924;27;45245;-72
2022/03/23 03:16:14;;;;;;;;;44.00;33.67;;;;;10.79;54.40;102589.50;5077761;27;45344;-72
2022/03/23 03:18:40;;;;;;;;;54.33;40.33;;;;;10.83;54.58;102606.19;5078072;27;45443;-72
2022/03/23 03:21:06;;;;;;;;;53.67;42.00;;;;;10.80;54.72;102608.81;5077936;27;45601;-72
2022/03/23 03:23:33;;;;;;;;;51.33;42.00;;;;;10.73;54.96;102602.63;5077518;27;46296;-72
2022/03/23 03:26:01;;;;;;;;;46.67;36.67;;;;;10.56;54.29;102584.06;5077359;28;45359;-72
2022/03/23 03:28:28;;;;;;;;;45.33;38.33;;;;;10.62;54.08;102615.72;5077455;27;45452;-72
2022/03/23 03:30:53;;;;;;;;;56.00;42.33;;;;;10.62;54.35;102630.66;5077705;27;45363;-72
2022/03/23 03:33:18;;;;;;;;;59.67;45.00;;;;;10.59;54.92;102631.50;5077515;27;46390;-72
2022/03/23 03:35:44;;;;;;;;;55.67;42.00;;;;;10.56;54.11;102628.84;5077352;28;45748;-72
2022/03/23 03:38:09;;;;;;;;;59.00;43.00;;;;;10.49;54.50;102620.91;5077839;28;45356;-72
2022/03/23 03:40:35;;;;;;;;;54.00;41.67;;;;;10.53;54.05;102626.19;5077792;27;45563;-72
2022/03/23 03:43:00;;;;;;;;;55.33;42.67;;;;;10.53;53.66;102633.19;5077449;28;47031;-72
2022/03/23 03:45:25;;;;;;;;;56.00;43.33;;;;;10.45;54.33;102612.94;5077408;27;45514;-72
2022/03/23 03:47:51;;;;;;;;;53.67;43.33;;;;;10.46;54.29;102624.38;5075998;28;45239;-72
2022/03/23 03:50:16;;;;;;;;;59.67;42.33;;;;;10.44;54.59;102629.66;5078067;28;45207;-72
2022/03/23 03:52:41;;;;;;;;;57.00;43.00;;;;;10.40;55.22;102627.84;5077146;28;47704;-72
2022/03/23 03:55:07;;;;;;;;;59.33;43.67;;;;;10.38;54.87;102621.69;5077326;27;45404;-72
2022/03/23 03:57:33;;;;;;;;;58.67;46.00;;;;;10.42;55.09;102633.13;5077358;27;45216;-72
2022/03/23 03:59:58;;;;;;;;;53.67;39.33;;;;;10.25;55.21;102618.03;5077350;28;45423;-72
2022/03/23 04:02:24;;;;;;;;;59.50;45.00;;;;;10.33;55.28;102641.78;5077225;28;46442;-72
2022/03/23 04:04:49;;;;;;;;;59.67;43.00;;;;;10.32;55.44;102645.28;5077166;27;45291;-72
2022/03/23 04:07:15;;;;;;;;;54.00;43.00;;;;;10.17;55.62;102630.25;5077533;27;45698;-72
2022/03/23 04:09:40;;;;;;;;;58.33;44.33;;;;;10.23;55.36;102635.56;5077375;27;45492;-72
2022/03/23 04:12:06;;;;;;;;;58.67;43.33;;;;;10.17;55.38;102635.50;5076593;27;46054;-72
2022/03/23 04:14:31;;;;;;;;;60.33;46.00;;;;;10.06;55.66;102627.53;5077305;27;45415;-72
2022/03/23 04:16:57;;;;;;;;;55.67;43.00;;;;;10.07;55.63;102633.66;5076793;28;45367;-72
2022/03/23 04:19:22;;;;;;;;;58.00;45.33;;;;;9.96;55.31;102625.63;5077531;28;45373;-72
2022/03/23 04:21:48;;;;;;;;;55.33;44.00;;;;;10.03;56.35;102647.66;5076741;28;46712;-72
2022/03/23 04:24:13;;;;;;;;;54.00;40.67;;;;;9.97;56.65;102637.94;5076780;27;45351;-72
2022/03/23 04:26:38;;;;;;;;;59.33;44.67;;;;;10.02;55.57;102643.25;5077105;28;45924;-72
2022/03/23 04:29:04;;;;;;;;;54.00;43.00;;;;;9.92;56.73;102643.16;5077104;27;45545;-72
2022/03/23 04:31:29;;;;;;;;;61.67;45.33;;;;;9.88;57.10;102645.75;5076452;28;47235;-72
2022/03/23 04:33:55;;;;;;;;;58.50;44.00;;;;;9.87;57.59;102646.59;5075584;28;45364;-72
2022/03/23 04:36:20;;;;;;;;;51.33;39.33;;;;;9.85;57.54;102650.97;5076920;27;45456;-72
2022/03/23 04:38:46;;;;;;;;;74.00;56.00;;;;;9.67;57.11;102630.59;5079244;27;45419;-72
2022/03/23 04:41:11;;;;;;;;;61.67;44.33;;;;;9.81;57.55;102654.44;5080214;28;47570;-72
2022/03/23 04:43:38;;;;;;;;;56.67;46.00;;;;;9.76;57.67;102654.41;5080292;27;45379;-72
2022/03/23 04:46:05;;;;;;;;;55.67;42.67;;;;;9.62;57.11;102627.03;5080414;27;45269;-72
2022/03/23 04:48:31;;;;;;;;;62.50;46.75;;;;;9.71;57.50;102653.44;5079750;27;45430;-72
2022/03/23 04:50:56;;;;;;;;;53.33;42.67;;;;;9.67;57.38;102651.63;5080027;27;46274;-72
2022/03/23 04:53:21;;;;;;;;;59.67;47.00;;;;;9.54;57.28;102650.59;5080100;28;45250;-72
2022/03/23 04:55:47;;;;;;;;;65.00;48.00;;;;;9.44;58.10;102640.84;5080250;27;45504;-72
2022/03/23 04:58:12;;;;;;;;;71.25;52.50;;;;;9.48;57.68;102653.16;5080350;28;45268;-72
2022/03/23 05:00:38;;;;;;;;;61.50;48.50;;;;;9.45;58.17;102658.38;5079392;28;45999;-72
2022/03/23 05:03:04;;;;;;;;;54.67;43.33;;;;;9.32;58.05;102645.06;5079299;27;45390;-72
2022/03/23 05:05:30;;;;;;;;;58.33;45.67;;;;;9.34;58.14;102643.34;5080187;28;45357;-72
2022/03/23 05:07:55;;;;;;;;;57.00;45.00;;;;;9.33;57.69;102652.09;5079780;27;45356;-71
2022/03/23 05:10:21;;;;;;;;;56.00;45.67;;;;;8.97;57.83;102598.16;5079773;27;46027;-71
2022/03/23 05:12:46;;;;;;;;;55.00;45.00;;;;;9.37;58.63;102672.31;5079958;27;45325;-71
2022/03/23 05:15:14;;;;;;;;;64.67;46.33;;;;;9.35;58.74;102662.63;5079937;27;45198;-72
2022/03/23 05:17:40;;;;;;;;;60.00;47.33;;;;;9.30;58.63;102659.94;5079564;27;45478;-71
2022/03/23 05:20:07;;;;;;;;;61.25;48.25;;;;;9.16;59.15;102651.84;5079531;27;46223;-72
2022/03/23 05:22:33;;;;;;;;;63.33;47.33;;;;;9.29;58.93;102673.06;5079415;27;45535;-72
2022/03/23 05:24:58;;;;;;;;;63.33;47.00;;;;;9.24;59.07;102667.75;5079766;27;45340;-72
2022/03/23 05:27:24;;;;;;;;;68.25;47.00;;;;;8.99;59.43;102620.09;5079974;27;45556;-72
2022/03/23 05:29:50;;;;;;;;;63.00;47.00;;;;;9.17;59.07;102664.16;5079390;27;47209;-71
2022/03/23 05:32:18;;;;;;;;;76.50;51.00;;;;;9.24;58.19;102675.66;5079231;28;45476;-71
2022/03/23 05:34:51;;;;;;;;;64.00;46.67;;;;;9.17;59.28;102669.41;5079522;27;45597;-71
2022/03/23 05:37:17;;;;;;;;;58.25;47.00;;;;;9.23;58.73;102676.50;5079430;27;45337;-71
2022/03/23 05:39:42;;;;;;;;;58.50;48.25;;;;;9.11;59.66;102674.56;5079445;27;46127;-71
2022/03/23 05:42:09;;;;;;;;;61.33;47.33;;;;;9.12;59.51;102680.72;5079080;27;45359;-71
2022/03/23 05:44:35;;;;;;;;;58.67;45.33;;;;;9.08;60.11;102677.16;5069625;27;45250;-71
2022/03/23 05:47:01;;;;;;;;;66.33;47.33;;;;;9.04;60.11;102673.59;5070282;28;45568;-71
2022/03/23 05:49:27;;;;;;;;;62.67;45.67;;;;;9.06;58.90;102682.41;5058053;28;45694;-71
2022/03/23 05:51:56;;;;;;;;;63.33;50.00;;;;;8.88;59.32;102672.47;5063577;28;45462;-71
2022/03/23 05:54:22;;;;;;;;;62.50;49.50;;;;;8.99;60.33;102685.81;5079426;27;45457;-71
2022/03/23 05:56:48;;;;;;;;;62.00;48.00;;;;;8.97;59.47;102679.63;5079373;27;45266;-71
2022/03/23 05:59:13;;;;;;;;;56.33;43.33;;;;;8.95;59.20;102678.72;5078952;28;45404;-71
2022/03/23 06:01:39;;;;;;;;;58.75;46.75;;;;;8.79;59.30;102651.34;5078965;28;45263;-71
2022/03/23 06:04:04;;;;;;;;;59.67;46.33;;;;;9.01;59.80;102683.19;5079301;27;45358;-71
2022/03/23 06:06:29;;;;;;;;;74.75;56.00;;;;;8.97;58.94;102673.50;5078802;28;45337;-71
2022/03/23 06:08:55;;;;;;;;;68.50;50.50;;;;;9.02;59.91;102691.09;5078787;27;46281;-71
2022/03/23 06:11:21;;;;;;;;;58.33;45.33;;;;;8.93;59.06;102685.72;5078909;27;45285;-71
2022/03/23 06:13:47;;;;;;;;;64.00;48.33;;;;;8.98;58.66;102701.53;5079043;27;45433;-71
2022/03/23 06:16:12;;;;;;;;;61.50;45.75;;;;;8.80;59.93;102673.22;5079032;27;46013;-71
2022/03/23 06:18:38;;;;;;;;;58.67;47.67;;;;;8.99;60.45;102704.19;5078656;27;47383;-71
2022/03/23 06:21:06;;;;;;;;;62.00;49.00;;;;;8.99;60.90;102696.31;5078632;27;45461;-71
2022/03/23 06:23:31;;;;;;;;;63.00;51.00;;;;;9.02;60.74;102693.72;5078933;27;45369;-71
2022/03/23 06:25:57;;;;;;;;;68.25;50.00;;;;;9.12;60.63;102697.38;5078578;27;45276;-71
2022/03/23 06:28:23;;;;;;;;;62.50;44.00;;;;;9.28;60.11;102710.72;5078375;27;46427;-71
2022/03/23 06:30:50;;;;;;;;;62.67;49.00;;;;;9.29;60.31;102705.50;5078484;28;45236;-71
2022/03/23 06:33:16;;;;;;;;;63.33;47.33;;;;;9.31;60.21;102701.16;5078504;27;45463;-71
2022/03/23 06:35:42;;;;;;;;;64.75;47.00;;;;;9.43;59.26;102710.94;5078473;27;45407;-71
2022/03/23 06:38:07;;;;;;;;;60.75;45.25;;;;;9.43;59.50;102694.31;5077916;28;46399;-71
2022/03/23 06:40:34;;;;;;;;;63.00;47.75;;;;;9.77;58.96;102721.91;5077123;28;45359;-71
2022/03/23 06:42:59;;;;;;;;;62.25;47.25;;;;;9.70;58.63;102701.66;5078572;27;45310;-71
2022/03/23 06:45:25;;;;;;;;;55.67;40.33;;;;;9.85;58.00;102725.53;5078549;27;45366;-71
2022/03/23 06:47:50;;;;;;;;;63.50;48.00;;;;;9.87;58.54;102726.41;5078054;27;47142;-71
2022/03/23 06:50:15;;;;;;;;;62.75;48.75;;;;;9.93;58.60;102717.72;5077830;28;45442;-71
2022/03/23 06:52:41;;;;;;;;;68.50;48.50;;;;;10.18;57.78;102728.50;5078163;27;45384;-69
2022/03/23 06:55:07;;;;;;;;;68.00;53.25;;;;;10.23;58.16;102732.09;5078508;28;45468;-69
2022/03/23 06:57:32;;;;;;;;;63.00;49.50;;;;;10.25;58.05;102725.09;5078142;27;45275;-69
2022/03/23 06:59:58;;;;;;;;;67.50;52.25;;;;;9.96;57.70;102680.91;5077948;27;45452;-69
2022/03/23 07:02:23;;;;;;;;;66.25;50.25;;;;;10.19;58.29;102719.75;5076786;27;45276;-69
2022/03/23 07:04:49;;;;;;;;;65.75;49.75;;;;;10.37;57.31;102716.44;5078470;28;45422;-69
2022/03/23 07:07:14;;;;;;;;;59.50;46.75;;;;;10.54;57.09;102704.34;5077907;28;46126;-69
2022/03/23 07:09:41;;;;;;;;;66.00;50.00;;;;;11.85;54.58;102712.22;5078122;28;45542;-69
2022/03/23 07:12:09;;;;;;;;;62.75;49.00;;;;;12.46;52.41;102711.50;5078214;27;45464;-69
2022/03/23 07:14:36;;;;;;;;;67.00;49.00;;;;;12.38;52.05;102733.50;5078158;27;45457;-69
2022/03/23 07:17:03;;;;;;;;;61.50;48.00;;;;;12.28;52.60;102738.75;5077019;27;45656;-69
2022/03/23 07:19:28;;;;;;;;;62.00;48.00;;;;;12.60;52.01;102734.41;5078124;27;45376;-69
2022/03/23 07:21:54;;;;;;;;;63.75;49.00;;;;;12.45;51.96;102727.34;5077798;27;45797;-69
2022/03/23 07:24:20;;;;;;;;;60.50;46.50;;;;;12.25;52.08;102733.47;5077581;27;45211;-69
2022/03/23 07:26:46;;;;;;;;;64.00;47.75;;;;;12.13;52.75;102739.59;5077561;27;46403;-69
2022/03/23 07:29:13;;;;;;;;;66.75;50.50;;;;;11.95;51.93;102694.66;5077421;27;45554;-69
2022/03/23 07:31:39;;;;;;;;;64.75;46.50;;;;;12.58;51.58;102739.69;5057603;28;45312;-69
2022/03/23 07:34:05;;;;;;;;;68.25;49.50;;;;;12.63;50.79;102737.91;5075614;28;45387;-69
2022/03/23 07:36:31;;;;;;;;;60.33;47.33;;;;;12.52;51.29;102743.22;5076748;27;45299;-69
2022/03/23 07:38:56;;;;;;;;;61.25;48.00;;;;;12.47;51.25;102734.38;5077290;27;45472;-69
2022/03/23 07:41:22;;;;;;;;;66.00;49.75;;;;;12.47;50.83;102744.94;5077481;27;45537;-69
2022/03/23 07:43:49;;;;;;;;;67.67;50.33;;;;;12.43;51.37;102752.88;5078043;27;45363;-70
2022/03/23 07:46:14;;;;;;;;;67.33;49.33;;;;;12.34;50.86;102727.31;5077419;27;47107;-69
2022/03/23 07:48:40;;;;;;;;;61.33;48.33;;;;;12.44;50.67;102734.38;5077118;27;45424;-69
2022/03/23 07:51:06;;;;;;;;;61.75;49.00;;;;;12.51;50.34;102744.06;5077628;27;45330;-69
2022/03/23 07:53:31;;;;;;;;;61.50;46.50;;;;;12.54;50.15;102753.78;5077185;28;45395;-70
2022/03/23 07:55:57;;;;;;;;;64.00;46.67;;;;;12.54;49.55;102761.69;5077507;28;45774;-70
2022/03/23 07:58:23;;;;;;;;;60.33;47.00;;;;;12.58;50.52;102752.03;5077295;27;45399;-70
2022/03/23 08:00:49;;;;;;;;;55.33;45.00;;;;;12.55;49.40;102731.78;5077080;27;45421;-69
2022/03/23 08:03:14;;;;;;;;;63.67;47.33;;;;;12.84;49.32;102755.56;5077434;27;45348;-69
2022/03/23 08:05:42;;;;;;;;;64.50;49.00;;;;;12.89;49.26;102752.91;5077253;27;46260;-69
2022/03/23 08:08:09;;;;;;;;;62.00;46.00;;;;;13.15;49.06;102763.47;5076878;28;45242;-70
2022/03/23 08:10:36;;;;;;;;;62.00;46.50;;;;;13.31;48.61;102760.81;5077146;27;45232;-70
2022/03/23 08:13:02;;;;;;;;;60.00;45.00;;;;;14.22;48.07;102750.81;5078131;28;45471;-70
2022/03/23 08:15:29;;;;;;;;;59.00;45.67;;;;;15.52;43.46;102715.22;5081219;27;45583;-69
2022/03/23 08:17:58;;;;;;;;;58.67;45.00;;;;;17.00;41.23;102760.13;5080564;27;45344;-70
2022/03/23 08:20:32;;;;;;;;;61.50;46.25;;;;;17.27;40.00;102749.88;5080735;27;45845;-70
2022/03/23 08:22:59;;;;;;;;;57.33;44.33;;;;;17.21;41.13;102767.72;5080628;27;45456;-70
2022/03/23 08:25:25;;;;;;;;;60.67;45.00;;;;;16.62;40.98;102766.94;5080476;27;46286;-70
2022/03/23 08:27:51;;;;;;;;;55.00;43.67;;;;;15.99;43.08;102745.66;5079970;27;45249;-69
2022/03/23 08:30:17;;;;;;;;;57.00;44.00;;;;;15.90;43.80;102768.81;5080066;27;45566;-70
2022/03/23 08:32:42;;;;;;;;;60.67;44.67;;;;;16.27;41.63;102753.25;5080524;27;45387;-70
2022/03/23 08:35:08;;;;;;;;;54.67;45.67;;;;;17.07;41.31;102771.56;5080481;27;46585;-70
2022/03/23 08:37:33;;;;;;;;;63.00;48.33;;;;;17.11;40.59;102758.16;5080409;28;45427;-70
2022/03/23 08:39:59;;;;;;;;;53.33;41.67;;;;;17.47;40.57;102771.69;5080967;27;45361;-70
2022/03/23 08:42:25;;;;;;;;;59.33;44.67;;;;;17.94;38.62;102760.13;5080694;27;45375;-70
2022/03/23 08:44:50;;;;;;;;;67.33;43.33;;;;;18.45;37.74;102778.53;5080135;27;46941;-70
2022/03/23 08:47:17;;;;;;;;;57.33;43.33;;;;;18.65;37.79;102783.41;5079911;27;45420;-70
2022/03/23 08:49:43;;;;;;;;;50.33;38.33;;;;;19.88;35.75;102776.66;5080175;27;45435;-70
2022/03/23 08:52:08;;;;;;;;;60.33;44.00;;;;;20.61;36.50;102763.72;5080316;27;45300;-69
2022/03/23 08:54:34;;;;;;;;;57.33;44.67;;;;;20.17;34.92;102774.88;5079966;27;46415;-69
2022/03/23 08:57:00;;;;;;;;;48.00;38.67;;;;;20.60;35.69;102773.50;5079850;28;45226;-70
2022/03/23 08:59:25;;;;;;;;;51.67;40.33;;;;;20.61;34.45;102772.59;5080073;28;45352;-70
2022/03/23 09:01:51;;;;;;;;;58.33;42.67;;;;;20.15;36.69;102766.91;5080346;27;45151;-70
2022/03/23 09:04:16;;;;;;;;;51.00;40.33;;;;;19.63;36.35;102765.75;5078818;28;45364;-70
2022/03/23 09:06:42;;;;;;;;;55.00;43.67;;;;;19.35;36.97;102766.53;5079438;28;45512;-70
2022/03/23 09:09:08;;;;;;;;;54.67;41.67;;;;;19.55;36.39;102784.69;5080330;27;45348;-70
2022/03/23 09:11:33;;;;;;;;;54.75;43.50;;;;;20.09;35.34;102760.88;5079389;27;45498;-70
2022/03/23 09:13:58;;;;;;;;;57.67;44.67;;;;;20.84;33.13;102758.47;5079075;28;46441;-69
2022/03/23 09:16:24;;;;;;;;;55.00;44.33;;;;;21.28;34.73;102765.03;5079466;27;45395;-69
2022/03/23 09:18:49;;;;;;;;;53.67;39.67;;;;;21.19;33.37;102764.41;5079704;27;45394;-70
2022/03/23 09:21:15;;;;;;;;;49.00;38.33;;;;;20.78;34.01;102764.06;5079846;27;45365;-70
2022/03/23 09:23:41;;;;;;;;;49.33;38.00;;;;;20.38;34.40;102764.44;5079615;27;45423;-69
2022/03/23 09:26:09;;;;;;;;;47.33;39.00;;;;;20.34;35.78;102775.22;5078651;27;45415;-69
2022/03/23 09:28:35;;;;;;;;;60.33;45.67;;;;;20.91;33.80;102763.63;5079526;27;45376;-69
2022/03/23 09:31:00;;;;;;;;;49.67;42.00;;;;;21.03;33.47;102757.88;5079717;27;45233;-69
2022/03/23 09:33:27;;;;;;;;;55.75;43.75;;;;;20.97;32.91;102764.31;5079187;27;45280;-70
2022/03/23 09:35:53;;;;;;;;;48.33;38.33;;;;;20.93;34.99;102778.72;5079667;27;45767;-70
2022/03/23 09:38:18;;;;;;;;;56.25;45.00;;;;;21.33;32.84;102766.63;5079419;27;45414;-70
2022/03/23 09:40:49;;;;;;;;;56.67;40.67;;;;;21.68;32.01;102772.53;5080143;27;45677;-70
2022/03/23 09:43:19;;;;;;;;;53.33;40.67;;;;;22.03;31.57;102754.22;5079127;27;46643;-70
2022/03/23 09:48:11;;;;;;;;;48.67;40.67;;;;;23.33;31.58;102767.69;5099189;27;45412;-70
2022/03/23 09:50:41;;;;;;;;;51.00;40.67;;;;;24.73;29.67;102772.81;5082944;27;45306;-70
2022/03/23 09:53:07;;;;;;;;;52.33;40.33;;;;;25.44;27.38;102766.47;5098834;27;45998;-70
2022/03/23 09:55:33;;;;;;;;;51.00;40.33;;;;;25.54;27.12;102762.31;5099580;27;45400;-70
2022/03/23 09:58:03;;;;;;;;;47.33;38.33;;;;;25.84;28.71;102775.97;5099595;27;45346;-69
2022/03/23 10:00:39;;;;;;;;;49.33;39.00;;;;;25.75;26.71;102779.19;5099861;27;45285;-69
2022/03/23 10:03:55;;;;;;;;;59.25;48.25;;;;;26.20;25.82;102769.47;5099200;27;47293;-69
2022/03/23 10:06:53;;;;;;;;;49.67;40.33;;;;;26.84;26.71;102761.31;5099195;27;45224;-69
2022/03/23 10:09:57;;;;;;;;;45.00;35.67;;;;;27.57;25.31;102760.47;5099615;27;45426;-69
2022/03/23 10:12:34;;;;;;;;;41.67;32.67;;;;;27.98;25.70;102766.94;5035729;28;45486;-69
2022/03/23 10:15:36;;;;;;;;;51.67;39.33;;;;;28.09;23.54;102766.25;5035601;28;46229;-69
2022/03/23 10:18:20;;;;;;;;;43.67;32.67;;;;;29.20;22.26;102766.91;5035637;28;45434;-69
2022/03/23 10:20:46;;;;;;;;;45.00;32.67;;;;;30.08;21.35;102762.47;5035504;28;45542;-68
2022/03/23 10:23:11;;;;;;;;;38.67;30.00;;;;;31.01;20.80;102765.41;5035767;28;45417;-68
2022/03/23 10:25:40;;;;;;;;;35.67;31.00;;;;;31.64;19.23;102761.44;5035549;28;45570;-68
2022/03/23 10:28:13;;;;;;;;;43.67;34.33;;;;;32.18;19.14;102760.59;5035500;28;45850;-68
2022/03/23 10:30:39;;;;;;;;;32.33;30.33;;;;;32.43;17.13;102758.53;5035493;28;45517;-69
2022/03/23 10:33:24;;;;;;;;;38.67;30.67;;;;;32.85;19.97;102766.81;5035560;28;45411;-69
2022/03/23 10:35:51;;;;;;;;;39.00;33.00;;;;;32.86;19.49;102752.16;5034894;28;46221;-69
2022/03/23 10:38:21;;;;;;;;;32.33;30.00;;;;;32.67;17.80;102747.44;5035453;28;45373;-68
2022/03/23 10:40:50;;;;;;;;;32.50;31.00;;;;;32.45;17.89;102748.38;5035352;28;45323;-68
2022/03/23 10:43:20;;;;;;;;;38.75;33.25;;;;;31.95;18.06;102751.59;5035415;28;45566;-69
2022/03/23 10:45:47;;;;;;;;;36.33;31.67;;;;;31.29;20.11;102751.50;5035249;28;45441;-70
2022/03/23 10:48:17;;;;;;;;;40.00;32.25;;;;;30.34;19.17;102750.53;5074558;27;45473;-70
2022/03/23 10:51:09;;;;;;;;;51.00;41.75;;;;;29.62;19.96;102751.25;5097882;27;45404;-69
2022/03/23 10:53:41;;;;;;;;;41.75;32.25;;;;;28.95;20.60;102749.63;5095133;27;45456;-69
2022/03/23 10:56:06;;;;;;;;;34.67;30.67;;;;;28.32;22.03;102759.31;5098012;27;45373;-69
2022/03/23 10:58:34;;;;;;;;;39.00;31.67;;;;;27.76;21.02;102749.31;5097939;27;45458;-68
2022/03/23 11:01:06;;;;;;;;;37.50;31.75;;;;;27.24;21.89;102749.88;5098105;27;45420;-67
2022/03/23 11:03:36;;;;;;;;;39.00;32.00;;;;;26.75;22.75;102753.72;5098342;27;45494;-67
2022/03/23 11:06:02;;;;;;;;;39.67;31.67;;;;;26.30;23.67;102756.34;5097634;27;46086;-68
2022/03/23 11:08:27;;;;;;;;;36.67;32.67;;;;;25.91;23.49;102754.91;5097735;27;45397;-68
2022/03/23 11:16:35;;;;;;;;;43.33;33.67;;;;;24.38;25.05;102743.97;5097666;27;45409;-68
2022/03/23 11:19:07;;;;;;;;;38.00;33.67;;;;;24.02;25.85;102749.31;5097478;27;45313;-68
2022/03/23 11:21:32;;;;;;;;;41.67;32.67;;;;;23.45;26.83;102739.34;5097671;27;45475;-68
2022/03/23 11:24:01;;;;;;;;;40.33;33.67;;;;;22.98;26.90;102735.13;5098071;27;45309;-69
2022/03/23 11:26:27;;;;;;;;;45.00;34.00;;;;;22.45;27.07;102712.28;5097508;27;45511;-68
2022/03/23 11:28:53;;;;;;;;;46.33;36.00;;;;;22.08;27.39;102690.50;5097465;27;45391;-69